This is the latest recevied weather packets stored in our database for station/object M0TJX-1. If no packets are shown the sender has not sent any weather packets the latest 10 day(s).
| Time | Temp. | Humidity | Pressure | Rain* | Wind** | Luminosity | Snow |
|---|---|---|---|---|---|---|---|
| 1777062513 | 12.22° C | 56% | 1022.3 hPa | 0 mm | - | - | - |
| 1777061613 | 12.78° C | 56% | 1022.3 hPa | 0 mm | - | - | - |
| 1777060713 | 13.33° C | 54% | 1022.3 hPa | 0 mm | - | - | - |
| 1777059813 | 14.44° C | 52% | 1022.3 hPa | 0 mm | - | - | - |
| 1777058913 | 15° C | 48% | 1022.2 hPa | 0 mm | - | - | - |
| 1777058013 | 16.11° C | 45% | 1022.2 hPa | 0 mm | - | - | - |
| 1777057113 | 16.67° C | 40% | 1022.1 hPa | 0 mm | - | - | - |
| 1777056213 | 17.22° C | 37% | 1022.3 hPa | 0 mm | - | - | - |
| 1777055313 | 17.78° C | 35% | 1022.2 hPa | 0 mm | - | - | - |
| 1777054413 | 18.33° C | 37% | 1022.3 hPa | 0 mm | - | - | - |
| 1777053514 | 18.33° C | 35% | 1022.1 hPa | 0 mm | - | - | - |
| 1777052613 | 18.89° C | 32% | 1022.1 hPa | 0 mm | - | - | - |
| 1777051714 | 19.44° C | 31% | 1022.2 hPa | 0 mm | - | - | - |
| 1777050813 | 19.44° C | 32% | 1021.9 hPa | 0 mm | - | - | - |
| 1777049914 | 19.44° C | 32% | 1022.1 hPa | 0 mm | - | - | - |
| 1777049014 | 20° C | 30% | 1022.4 hPa | 0 mm | - | - | - |
| 1777048113 | 20° C | 31% | 1022.5 hPa | 0 mm | - | - | - |
| 1777047214 | 20° C | 30% | 1022.6 hPa | 0 mm | - | - | - |
| 1777046313 | 20° C | 32% | 1022.8 hPa | 0 mm | - | - | - |
| 1777045414 | 20° C | 32% | 1022.9 hPa | 0 mm | - | - | - |
| 1777044514 | 20° C | 32% | 1022.9 hPa | 0 mm | - | - | - |
| 1777043614 | 20° C | 35% | 1023.1 hPa | 0 mm | - | - | - |
| 1777042714 | 20° C | 35% | 1023.2 hPa | 0 mm | - | - | - |
| 1777041814 | 19.44° C | 37% | 1023.3 hPa | 0 mm | - | - | - |
| 1777040914 | 19.44° C | 37% | 1023.5 hPa | 0 mm | - | - | - |
* Rain latest hour (hover to see other rain measurements)
** Current wind speed in m/s (hover to see current wind gust speed)